Time;durP1;ratioP1;P1;durP2;ratioP2;P2;SDS_P1;SDS_P2;PMS_P1;PMS_P2;Temp;Humidity;BMP_temperature;BMP_pressure;BME280_temperature;BME280_humidity;BME280_pressure;Samples;Min_cycle;Max_cycle;Signal;HPM_P1;HPM_P2
2023/03/30 00:01:38;;;;;;;11.20;8.53;;;10.70;99.90;;;;;;5074398;28;20779;-66
2023/03/30 00:04:05;;;;;;;11.07;8.87;;;10.70;99.90;;;;;;5074001;28;20449;-66
2023/03/30 00:06:33;;;;;;;10.50;8.57;;;10.80;99.90;;;;;;5074053;28;20544;-66
2023/03/30 00:09:00;;;;;;;9.67;8.67;;;10.70;99.90;;;;;;5074560;28;20922;-67
2023/03/30 00:11:32;;;;;;;9.60;8.60;;;10.70;99.90;;;;;;5074024;28;20557;-67
2023/03/30 00:13:59;;;;;;;10.60;8.93;;;10.70;99.90;;;;;;5074631;28;20577;-67
2023/03/30 00:16:27;;;;;;;11.43;7.87;;;10.70;99.90;;;;;;5074046;28;20454;-67
2023/03/30 00:18:54;;;;;;;9.80;8.80;;;10.60;99.90;;;;;;5074140;28;20458;-67
2023/03/30 00:21:21;;;;;;;13.00;9.63;;;10.50;99.90;;;;;;5074093;28;20791;-67
2023/03/30 00:23:48;;;;;;;9.40;8.17;;;10.50;99.90;;;;;;5073693;28;20468;-67
2023/03/30 00:26:15;;;;;;;9.13;8.20;;;10.50;99.90;;;;;;5074789;28;20836;-67
2023/03/30 00:28:43;;;;;;;9.50;8.00;;;10.40;99.90;;;;;;5077965;28;20480;-69
2023/03/30 00:31:10;;;;;;;9.50;8.50;;;10.40;99.90;;;;;;5077563;28;20549;-69
2023/03/30 00:33:37;;;;;;;12.47;9.20;;;10.40;99.90;;;;;;5077780;28;20478;-69
2023/03/30 00:36:05;;;;;;;10.57;9.10;;;10.20;99.90;;;;;;5077918;28;20485;-69
2023/03/30 00:38:32;;;;;;;12.47;9.27;;;10.20;99.90;;;;;;5077425;28;20922;-69
2023/03/30 00:41:00;;;;;;;9.47;8.03;;;10.00;99.90;;;;;;5077675;28;20548;-70
2023/03/30 00:43:28;;;;;;;9.80;8.73;;;10.00;99.90;;;;;;5077585;28;20465;-70
2023/03/30 00:45:57;;;;;;;10.03;8.30;;;9.90;99.90;;;;;;5077225;28;20458;-69
2023/03/30 00:48:27;;;;;;;9.50;8.60;;;9.80;99.90;;;;;;5077149;28;20464;-70
2023/03/30 00:50:57;;;;;;;9.27;8.37;;;9.70;99.90;;;;;;5077700;28;20549;-70
2023/03/30 00:53:27;;;;;;;11.23;8.97;;;9.70;99.90;;;;;;5077501;28;20453;-70
2023/03/30 00:55:55;;;;;;;9.97;8.40;;;9.70;99.90;;;;;;5077692;28;20464;-70
2023/03/30 00:58:23;;;;;;;11.13;8.93;;;9.60;99.90;;;;;;5076945;28;20506;-69
2023/03/30 01:00:50;;;;;;;10.23;8.83;;;9.50;99.90;;;;;;5077323;28;20466;-70
2023/03/30 01:03:21;;;;;;;10.10;9.00;;;9.50;99.90;;;;;;5076893;28;20482;-69
2023/03/30 01:05:48;;;;;;;10.27;9.17;;;9.50;99.90;;;;;;5076762;28;20451;-70
2023/03/30 01:08:17;;;;;;;11.57;8.77;;;9.40;99.90;;;;;;5077382;28;20867;-70
2023/03/30 01:10:44;;;;;;;11.30;9.80;;;9.40;99.90;;;;;;5077100;28;20540;-70
2023/03/30 01:13:11;;;;;;;10.80;8.57;;;9.40;99.90;;;;;;5076754;28;20941;-70
2023/03/30 01:15:47;;;;;;;10.47;9.47;;;9.40;99.90;;;;;;5076882;28;20481;-70
2023/03/30 01:18:32;;;;;;;10.63;9.53;;;9.50;99.90;;;;;;5076717;28;20446;-70
2023/03/30 01:21:35;;;;;;;11.50;10.30;;;9.60;99.90;;;;;;5077115;28;20530;-69
2023/03/30 01:24:48;;;;;;;11.13;9.57;;;9.50;99.90;;;;;;5077005;28;20443;-69
2023/03/30 01:27:38;;;;;;;9.77;8.87;;;9.60;99.90;;;;;;5076883;28;20442;-70
2023/03/30 01:30:22;;;;;;;9.50;8.43;;;9.60;99.90;;;;;;5076883;28;20438;-69
2023/03/30 01:33:37;;;;;;;11.10;9.90;;;9.60;99.90;;;;;;5076867;28;20774;-70
2023/03/30 01:36:33;;;;;;;11.70;9.23;;;9.60;99.90;;;;;;5040642;28;20450;-70
2023/03/30 01:39:22;;;;;;;11.27;10.17;;;9.80;99.90;;;;;;5075361;28;20782;-70
2023/03/30 01:41:56;;;;;;;11.77;9.70;;;9.80;99.90;;;;;;5076286;28;20887;-70
2023/03/30 01:44:30;;;;;;;10.37;9.30;;;9.80;99.90;;;;;;5076261;28;20438;-70
2023/03/30 01:47:04;;;;;;;11.00;9.90;;;9.70;99.90;;;;;;5076473;28;20434;-70
2023/03/30 01:49:39;;;;;;;14.00;9.63;;;9.60;99.90;;;;;;5076702;28;20473;-70
2023/03/30 01:52:13;;;;;;;12.60;10.60;;;9.50;99.90;;;;;;5076078;28;20438;-70
2023/03/30 01:54:46;;;;;;;13.43;9.47;;;9.40;99.90;;;;;;5076267;28;20798;-69
2023/03/30 01:57:16;;;;;;;10.60;9.50;;;9.40;99.90;;;;;;5076017;28;20449;-70
2023/03/30 01:59:51;;;;;;;10.20;9.13;;;9.40;99.90;;;;;;5076459;28;20484;-71
2023/03/30 02:02:22;;;;;;;15.27;10.07;;;9.30;99.90;;;;;;5075788;28;20493;-69
2023/03/30 02:04:53;;;;;;;12.03;10.57;;;9.30;99.90;;;;;;5076123;28;20434;-69
2023/03/30 02:07:24;;;;;;;11.07;9.97;;;9.30;99.90;;;;;;5075794;28;20454;-69
2023/03/30 02:09:56;;;;;;;12.77;9.57;;;9.30;99.90;;;;;;5076834;28;20443;-69
2023/03/30 02:12:25;;;;;;;11.70;9.30;;;9.30;99.90;;;;;;5076503;28;20458;-70
2023/03/30 02:14:53;;;;;;;10.93;9.37;;;9.20;99.90;;;;;;5075809;28;20492;-70
2023/03/30 02:17:23;;;;;;;10.47;9.37;;;9.10;99.90;;;;;;5076220;28;20768;-70
2023/03/30 02:19:50;;;;;;;11.00;9.10;;;9.10;99.90;;;;;;5075894;28;20819;-70
2023/03/30 02:22:19;;;;;;;11.87;9.93;;;9.10;99.90;;;;;;5075582;28;20541;-68
2023/03/30 02:24:50;;;;;;;11.27;10.07;;;9.10;99.90;;;;;;5075329;28;20456;-69
2023/03/30 02:27:18;;;;;;;10.23;8.73;;;9.10;99.90;;;;;;5075589;28;20442;-69
2023/03/30 02:29:46;;;;;;;11.53;9.40;;;9.20;99.90;;;;;;5075801;28;20472;-69
2023/03/30 02:32:17;;;;;;;10.20;8.93;;;9.30;99.90;;;;;;5075761;28;20468;-69
2023/03/30 02:35:00;;;;;;;9.77;8.73;;;9.40;99.90;;;;;;5075109;28;20462;-70
2023/03/30 02:37:53;;;;;;;10.13;9.10;;;9.30;99.90;;;;;;5075503;28;20529;-70
2023/03/30 02:40:36;;;;;;;9.57;8.50;;;9.30;99.90;;;;;;5076237;28;20450;-69
2023/03/30 02:43:21;;;;;;;11.87;9.33;;;9.40;99.90;;;;;;5075405;28;20782;-69
2023/03/30 02:45:53;;;;;;;10.30;9.33;;;9.40;99.90;;;;;;5075399;28;20525;-70
2023/03/30 02:48:34;;;;;;;10.77;9.10;;;9.50;99.90;;;;;;5075111;28;20443;-70
2023/03/30 02:51:23;;;;;;;9.57;7.67;;;9.50;99.90;;;;;;5074982;28;20454;-71
2023/03/30 02:54:00;;;;;;;9.97;7.90;;;9.50;99.90;;;;;;5075128;28;20480;-68
2023/03/30 02:56:36;;;;;;;9.50;7.70;;;9.60;99.90;;;;;;5075025;28;20446;-70
2023/03/30 02:59:08;;;;;;;9.30;8.30;;;9.60;99.90;;;;;;5074841;28;20550;-68
2023/03/30 03:01:40;;;;;;;12.17;8.10;;;9.60;99.90;;;;;;5074905;28;20442;-70
2023/03/30 03:04:09;;;;;;;11.77;8.50;;;9.60;99.90;;;;;;5074832;28;20445;-69
2023/03/30 03:06:37;;;;;;;8.80;7.90;;;9.60;99.90;;;;;;5075038;28;20458;-69
2023/03/30 03:09:05;;;;;;;11.67;8.73;;;9.70;99.90;;;;;;5074892;28;20464;-70
2023/03/30 03:11:32;;;;;;;9.30;7.93;;;9.80;99.90;;;;;;5074716;28;20465;-70
2023/03/30 03:13:59;;;;;;;11.50;8.60;;;9.80;99.90;;;;;;5074852;28;20489;-70
2023/03/30 03:16:27;;;;;;;9.17;8.30;;;9.90;99.90;;;;;;5074831;28;20485;-69
2023/03/30 03:18:54;;;;;;;8.77;7.83;;;9.80;99.90;;;;;;5074645;28;20493;-69
2023/03/30 03:21:21;;;;;;;9.77;8.30;;;9.70;99.90;;;;;;5074973;28;20540;-70
2023/03/30 03:23:48;;;;;;;10.83;8.50;;;9.70;99.90;;;;;;5074924;28;20458;-70
2023/03/30 03:26:15;;;;;;;8.20;7.40;;;9.60;99.90;;;;;;5074632;28;20549;-70
2023/03/30 03:28:43;;;;;;;12.07;8.77;;;9.60;99.90;;;;;;5074549;28;20454;-70
2023/03/30 03:31:11;;;;;;;9.30;8.10;;;9.50;99.90;;;;;;5074259;28;20903;-70
2023/03/30 03:33:39;;;;;;;8.63;7.73;;;9.40;99.90;;;;;;5074744;28;20922;-69
2023/03/30 03:36:06;;;;;;;10.07;9.07;;;9.40;99.90;;;;;;5074043;28;20482;-69
2023/03/30 03:38:33;;;;;;;10.50;8.93;;;9.50;99.90;;;;;;5073957;28;20458;-69
2023/03/30 03:41:00;;;;;;;11.50;8.83;;;9.50;99.90;;;;;;5074118;28;20464;-69
2023/03/30 03:43:27;;;;;;;10.03;8.50;;;9.50;99.90;;;;;;5073968;28;20469;-70
2023/03/30 03:45:54;;;;;;;13.87;9.20;;;9.50;99.90;;;;;;5074288;28;20454;-70
2023/03/30 03:48:24;;;;;;;9.47;8.27;;;9.40;99.90;;;;;;5074740;28;20454;-70
2023/03/30 03:50:53;;;;;;;11.30;9.10;;;9.50;99.90;;;;;;5074437;28;20454;-70
2023/03/30 03:53:20;;;;;;;12.40;9.90;;;9.50;99.90;;;;;;5074010;28;20485;-69
2023/03/30 03:55:47;;;;;;;12.93;9.10;;;9.40;99.90;;;;;;5073769;28;20484;-69
2023/03/30 03:58:14;;;;;;;11.17;9.47;;;9.40;99.90;;;;;;5074334;28;20458;-70
2023/03/30 04:00:41;;;;;;;16.30;10.17;;;9.40;99.90;;;;;;5074416;28;20454;-69
2023/03/30 04:03:08;;;;;;;11.57;9.80;;;9.40;99.90;;;;;;5077710;28;20492;-70
2023/03/30 04:05:35;;;;;;;11.63;9.73;;;9.40;99.90;;;;;;5078488;28;20456;-70
2023/03/30 04:08:04;;;;;;;11.43;9.80;;;9.40;99.90;;;;;;5078778;28;20458;-69
2023/03/30 04:10:31;;;;;;;11.17;9.07;;;9.40;99.90;;;;;;5078485;28;20458;-70
2023/03/30 04:12:58;;;;;;;10.60;9.10;;;9.40;99.90;;;;;;5078604;28;20556;-70
2023/03/30 04:15:26;;;;;;;11.90;9.63;;;9.50;99.90;;;;;;5078111;28;20488;-70
2023/03/30 04:17:56;;;;;;;11.83;10.10;;;9.50;99.90;;;;;;5078041;28;20523;-70
2023/03/30 04:20:24;;;;;;;11.17;9.23;;;9.50;99.90;;;;;;5078121;28;20469;-69
2023/03/30 04:22:52;;;;;;;15.47;9.97;;;9.50;99.90;;;;;;5078379;28;20454;-70
2023/03/30 04:25:21;;;;;;;11.27;9.20;;;9.60;99.90;;;;;;5077688;28;20541;-70
2023/03/30 04:27:50;;;;;;;12.43;8.93;;;9.70;99.90;;;;;;5077907;28;20454;-68
2023/03/30 04:30:17;;;;;;;15.17;9.13;;;9.80;99.90;;;;;;5077355;28;20936;-70
2023/03/30 04:32:45;;;;;;;9.93;8.93;;;9.80;99.90;;;;;;5078409;28;20465;-70
2023/03/30 04:35:13;;;;;;;11.27;9.67;;;9.90;99.90;;;;;;5077967;28;20791;-70
2023/03/30 04:37:40;;;;;;;12.10;9.70;;;10.00;99.90;;;;;;5077787;28;20966;-70
2023/03/30 04:40:09;;;;;;;13.20;9.83;;;10.00;99.90;;;;;;5077421;28;20490;-69
2023/03/30 04:42:37;;;;;;;10.33;8.93;;;10.00;99.90;;;;;;5077001;28;20442;-70
2023/03/30 04:45:05;;;;;;;10.33;8.50;;;10.10;99.90;;;;;;5077421;28;20530;-70
2023/03/30 04:47:32;;;;;;;12.07;9.40;;;10.10;99.90;;;;;;5077533;28;20480;-70
2023/03/30 04:49:59;;;;;;;12.17;9.50;;;10.20;99.90;;;;;;5077246;28;20464;-70
2023/03/30 04:52:27;;;;;;;13.97;10.73;;;10.20;99.90;;;;;;5077278;28;20741;-69
2023/03/30 04:54:54;;;;;;;10.20;9.10;;;10.20;99.90;;;;;;5076784;28;20478;-69
2023/03/30 04:57:21;;;;;;;13.57;9.10;;;10.10;99.90;;;;;;5076777;28;20795;-70
2023/03/30 04:59:49;;;;;;;11.53;9.10;;;10.10;99.90;;;;;;5077198;28;20462;-70
2023/03/30 05:02:16;;;;;;;14.93;9.27;;;10.20;99.90;;;;;;5076717;28;20492;-69
2023/03/30 05:04:43;;;;;;;11.33;8.90;;;10.10;99.90;;;;;;5077179;28;20461;-70
2023/03/30 05:07:13;;;;;;;14.17;9.33;;;9.90;99.90;;;;;;5077024;28;20458;-69
2023/03/30 05:09:40;;;;;;;10.80;9.00;;;9.80;99.90;;;;;;5077168;28;20481;-69
2023/03/30 05:12:07;;;;;;;26.70;16.90;;;9.80;99.90;;;;;;5076814;28;20464;-69
2023/03/30 05:14:34;;;;;;;11.80;8.10;;;9.80;99.90;;;;;;5076767;28;20835;-69
2023/03/30 05:17:02;;;;;;;9.53;8.53;;;9.70;99.90;;;;;;5077149;28;20869;-69
2023/03/30 05:19:29;;;;;;;9.53;8.53;;;9.70;99.90;;;;;;5077232;28;20549;-71
2023/03/30 05:21:56;;;;;;;12.27;9.03;;;9.70;99.90;;;;;;5077092;28;20453;-70
2023/03/30 05:24:22;;;;;;;9.83;8.47;;;9.70;99.90;;;;;;5077102;28;20476;-70
2023/03/30 05:26:49;;;;;;;10.93;8.97;;;9.80;99.90;;;;;;5076697;28;20454;-70
2023/03/30 05:29:16;;;;;;;11.27;9.03;;;9.80;99.90;;;;;;5076724;28;20496;-70
2023/03/30 05:31:43;;;;;;;11.87;8.90;;;9.90;99.90;;;;;;5076828;28;20462;-70
2023/03/30 05:34:11;;;;;;;9.70;7.73;;;9.80;99.90;;;;;;5076213;28;20464;-70
2023/03/30 05:36:38;;;;;;;10.70;8.83;;;10.00;99.90;;;;;;5076319;28;20486;-70
2023/03/30 05:39:05;;;;;;;13.23;8.90;;;10.10;99.90;;;;;;5076464;28;20759;-69
2023/03/30 05:41:32;;;;;;;10.87;8.83;;;10.10;99.90;;;;;;5076507;28;20471;-71
2023/03/30 05:43:58;;;;;;;9.77;8.20;;;9.90;99.90;;;;;;5076057;28;20461;-70
2023/03/30 05:46:26;;;;;;;10.90;9.60;;;9.80;99.90;;;;;;5076134;28;20481;-70
2023/03/30 05:48:53;;;;;;;10.90;8.67;;;9.80;99.90;;;;;;5076133;28;20454;-70
2023/03/30 05:51:21;;;;;;;11.30;8.80;;;9.80;99.90;;;;;;5076518;28;20454;-70
2023/03/30 05:53:48;;;;;;;10.87;8.23;;;9.70;99.90;;;;;;5076763;28;20756;-69
2023/03/30 05:56:15;;;;;;;12.20;7.57;;;9.70;99.90;;;;;;5076142;28;20478;-70
2023/03/30 05:58:42;;;;;;;11.33;7.33;;;9.70;99.90;;;;;;5076109;28;20461;-69
2023/03/30 06:01:10;;;;;;;9.30;7.60;;;9.70;99.90;;;;;;5075952;28;20515;-70
2023/03/30 06:03:37;;;;;;;9.63;7.57;;;9.80;99.90;;;;;;5076105;28;20482;-70
2023/03/30 06:06:05;;;;;;;8.00;6.90;;;9.80;99.90;;;;;;5076024;28;20464;-70
2023/03/30 06:08:33;;;;;;;8.67;7.23;;;9.80;99.90;;;;;;5076048;28;20464;-70
2023/03/30 06:11:00;;;;;;;11.23;7.77;;;9.90;99.90;;;;;;5076286;28;20465;-70
2023/03/30 06:13:27;;;;;;;8.00;7.20;;;9.90;99.90;;;;;;5075952;28;20460;-70
2023/03/30 06:15:54;;;;;;;12.53;8.20;;;9.90;99.90;;;;;;5076001;28;20572;-70
2023/03/30 06:18:21;;;;;;;10.33;7.57;;;9.90;99.90;;;;;;5076222;28;20519;-70
2023/03/30 06:20:49;;;;;;;9.33;7.60;;;9.90;99.90;;;;;;5075814;28;20934;-70
2023/03/30 06:23:16;;;;;;;12.97;8.03;;;9.90;99.90;;;;;;5075877;28;20485;-70
2023/03/30 06:25:51;;;;;;;8.23;7.33;;;9.90;99.90;;;;;;5075211;28;20454;-70
2023/03/30 06:28:18;;;;;;;11.33;7.20;;;10.00;99.90;;;;;;5075833;28;20940;-70
2023/03/30 06:30:47;;;;;;;9.67;6.50;;;10.00;99.90;;;;;;5075587;28;20835;-69
2023/03/30 06:33:15;;;;;;;9.33;7.03;;;10.00;99.90;;;;;;5075534;28;20523;-69
2023/03/30 06:35:45;;;;;;;8.13;7.30;;;10.10;99.90;;;;;;5075299;28;20487;-70
2023/03/30 06:38:12;;;;;;;9.57;7.30;;;10.20;99.90;;;;;;5075369;28;20457;-69
2023/03/30 06:40:39;;;;;;;7.57;6.60;;;10.30;99.90;;;;;;5074899;28;20458;-70
2023/03/30 06:43:08;;;;;;;8.90;6.67;;;10.40;99.90;;;;;;5074706;28;20549;-70
2023/03/30 06:45:35;;;;;;;10.13;7.57;;;10.40;99.90;;;;;;5075068;28;20454;-70
2023/03/30 06:48:02;;;;;;;9.97;7.63;;;10.50;99.90;;;;;;5074789;28;20458;-70
2023/03/30 06:50:29;;;;;;;8.23;6.83;;;10.50;99.90;;;;;;5074899;28;20473;-70
2023/03/30 06:52:56;;;;;;;11.53;7.70;;;10.60;99.90;;;;;;5074674;28;20469;-69
2023/03/30 06:55:23;;;;;;;12.20;7.80;;;10.60;99.90;;;;;;5074698;28;20481;-69
2023/03/30 06:57:50;;;;;;;10.80;7.43;;;10.60;99.90;;;;;;5074768;28;20460;-70
2023/03/30 07:00:19;;;;;;;8.47;6.60;;;10.50;99.90;;;;;;5074640;28;20549;-70
2023/03/30 07:02:46;;;;;;;12.17;7.97;;;10.40;99.90;;;;;;5074565;28;20518;-70
2023/03/30 07:05:14;;;;;;;10.27;7.80;;;10.50;99.90;;;;;;5074786;28;20537;-70
2023/03/30 07:07:41;;;;;;;8.80;7.50;;;10.50;99.90;;;;;;5074732;28;20454;-70
2023/03/30 07:10:09;;;;;;;10.00;6.33;;;10.50;99.90;;;;;;5074976;28;20541;-70
2023/03/30 07:12:37;;;;;;;6.87;5.97;;;10.50;99.90;;;;;;5075409;28;20497;-70
2023/03/30 07:15:05;;;;;;;8.50;6.73;;;10.50;99.90;;;;;;5074428;28;20469;-70
2023/03/30 07:17:46;;;;;;;10.50;7.37;;;10.50;99.90;;;;;;5075011;28;20527;-71
2023/03/30 07:20:15;;;;;;;8.97;7.20;;;10.50;99.90;;;;;;5075425;28;20435;-71
2023/03/30 07:22:42;;;;;;;8.10;6.70;;;10.50;99.90;;;;;;5074757;28;20458;-70
2023/03/30 07:25:09;;;;;;;7.33;6.60;;;10.60;99.90;;;;;;5075282;28;20454;-70
2023/03/30 07:27:36;;;;;;;8.17;6.83;;;10.70;99.90;;;;;;5074706;28;20454;-69
2023/03/30 07:30:04;;;;;;;12.43;7.80;;;10.80;99.90;;;;;;5074655;28;20977;-70
2023/03/30 07:32:31;;;;;;;10.40;6.50;;;10.80;99.90;;;;;;5074890;28;20464;-69
2023/03/30 07:35:00;;;;;;;9.43;6.90;;;10.90;99.90;;;;;;5074787;28;20454;-69
2023/03/30 07:37:27;;;;;;;6.93;6.10;;;11.00;99.90;;;;;;5073219;28;20958;-68
2023/03/30 07:39:54;;;;;;;9.30;8.33;;;11.00;99.90;;;;;;5074569;28;20462;-70
2023/03/30 07:42:21;;;;;;;9.90;6.00;;;11.00;99.90;;;;;;5074535;28;20541;-70
2023/03/30 07:44:48;;;;;;;8.30;7.37;;;11.00;99.90;;;;;;5074292;28;20541;-70
2023/03/30 07:47:15;;;;;;;7.30;6.23;;;11.10;99.90;;;;;;5073788;28;20462;-70
2023/03/30 07:49:42;;;;;;;10.00;7.00;;;11.20;99.90;;;;;;5074388;28;20556;-70
2023/03/30 07:52:10;;;;;;;7.73;6.43;;;11.30;99.90;;;;;;5074246;28;20541;-70
2023/03/30 07:54:37;;;;;;;6.97;6.27;;;11.50;99.90;;;;;;5074349;28;20541;-69
2023/03/30 07:57:04;;;;;;;8.53;6.13;;;11.60;99.90;;;;;;5074028;28;20974;-69
2023/03/30 07:59:31;;;;;;;8.83;6.23;;;11.70;99.90;;;;;;5074349;28;20835;-68
2023/03/30 08:01:59;;;;;;;7.00;6.13;;;11.70;99.90;;;;;;5074113;28;20570;-69
2023/03/30 08:04:26;;;;;;;8.63;6.70;;;11.70;99.90;;;;;;5074618;28;20554;-69
2023/03/30 08:06:53;;;;;;;9.73;5.83;;;11.70;99.90;;;;;;5074303;28;20481;-70
2023/03/30 08:09:21;;;;;;;7.17;5.90;;;11.80;99.90;;;;;;5074436;28;20480;-69
2023/03/30 08:11:49;;;;;;;8.73;6.53;;;11.80;99.90;;;;;;5074589;28;20554;-70
2023/03/30 08:14:16;;;;;;;7.60;6.23;;;11.90;99.90;;;;;;5074280;28;20497;-70
2023/03/30 08:16:43;;;;;;;10.60;6.07;;;11.90;99.90;;;;;;5074500;28;20478;-70
2023/03/30 08:19:10;;;;;;;6.80;6.10;;;12.00;99.90;;;;;;5074431;28;20478;-70
2023/03/30 08:21:37;;;;;;;10.73;5.50;;;12.10;99.90;;;;;;5074252;28;20476;-70
2023/03/30 08:24:04;;;;;;;9.97;5.87;;;12.30;99.90;;;;;;5074587;28;20792;-69
2023/03/30 08:26:33;;;;;;;7.40;5.70;;;12.40;99.90;;;;;;5074255;28;20889;-69
2023/03/30 08:28:59;;;;;;;8.03;5.40;;;12.50;99.90;;;;;;5074791;28;20858;-70
2023/03/30 08:31:26;;;;;;;6.37;4.93;;;12.70;99.90;;;;;;5074305;28;20454;-70
2023/03/30 08:33:53;;;;;;;8.53;5.80;;;12.70;99.90;;;;;;5074557;28;20472;-70
2023/03/30 08:36:20;;;;;;;7.90;4.90;;;12.80;99.90;;;;;;5074639;28;20482;-70
2023/03/30 08:38:47;;;;;;;6.10;4.53;;;13.00;99.90;;;;;;5073979;28;20901;-70
2023/03/30 08:41:48;;;;;;;6.67;4.60;;;13.10;99.90;;;;;;5074393;28;20484;-69
2023/03/30 08:44:22;;;;;;;5.60;5.00;;;13.30;99.90;;;;;;5074175;28;20450;-69
2023/03/30 08:46:50;;;;;;;6.27;4.90;;;13.40;99.90;;;;;;5073668;28;20438;-70
2023/03/30 08:49:20;;;;;;;8.40;4.70;;;13.50;99.90;;;;;;5077035;28;20450;-69
2023/03/30 08:51:49;;;;;;;8.23;4.03;;;13.70;99.90;;;;;;5078643;28;20450;-70
2023/03/30 08:54:18;;;;;;;7.47;3.77;;;13.90;99.90;;;;;;5078134;28;20458;-70
2023/03/30 08:56:54;;;;;;;3.77;3.47;;;14.20;99.90;;;;;;5077161;28;20558;-70
2023/03/30 08:59:29;;;;;;;4.07;3.47;;;14.30;99.90;;;;;;5078033;28;20438;-69
2023/03/30 09:02:00;;;;;;;8.07;3.40;;;14.50;99.90;;;;;;5077317;28;20495;-70
2023/03/30 09:04:40;;;;;;;6.10;3.60;;;14.70;99.90;;;;;;5077469;28;20439;-70
2023/03/30 09:07:16;;;;;;;5.00;3.60;;;14.80;99.90;;;;;;5077935;28;20875;-70
2023/03/30 09:09:45;;;;;;;5.23;3.60;;;15.00;99.90;;;;;;5077223;28;20937;-70
2023/03/30 09:12:22;;;;;;;7.67;3.23;;;15.10;99.90;;;;;;5076886;28;20450;-70
2023/03/30 09:14:54;;;;;;;4.90;3.67;;;15.30;99.90;;;;;;5077269;28;20485;-71
2023/03/30 09:17:27;;;;;;;5.07;3.20;;;15.40;99.90;;;;;;5077291;28;20467;-69
2023/03/30 09:19:58;;;;;;;4.93;3.33;;;15.50;99.90;;;;;;5077497;28;20438;-70
2023/03/30 09:22:31;;;;;;;5.97;3.30;;;15.60;99.90;;;;;;5077383;28;20460;-69
2023/03/30 09:24:58;;;;;;;5.20;2.80;;;15.70;99.90;;;;;;5077226;28;20442;-70
2023/03/30 09:27:34;;;;;;;8.07;3.70;;;15.90;99.90;;;;;;5076993;28;20454;-70
2023/03/30 09:30:15;;;;;;;7.40;3.87;;;15.90;99.90;;;;;;5076750;28;20536;-70
2023/03/30 09:32:53;;;;;;;8.93;3.00;;;15.90;99.90;;;;;;5077359;28;20452;-69
2023/03/30 09:35:24;;;;;;;8.00;3.00;;;15.90;99.90;;;;;;5076934;28;20442;-69
2023/03/30 09:37:52;;;;;;;9.37;3.17;;;16.00;99.90;;;;;;5076935;28;20936;-71
2023/03/30 09:40:28;;;;;;;5.53;2.90;;;16.10;99.90;;;;;;5076689;28;20519;-70
2023/03/30 09:43:04;;;;;;;5.80;2.77;;;16.00;99.90;;;;;;5076898;28;20851;-70
2023/03/30 09:45:34;;;;;;;6.27;2.90;;;16.10;99.90;;;;;;5076467;28;20442;-70
2023/03/30 09:48:04;;;;;;;5.50;2.47;;;16.20;99.90;;;;;;5076379;28;20482;-70
2023/03/30 09:50:31;;;;;;;9.43;2.80;;;16.30;99.90;;;;;;5076660;28;20744;-70
2023/03/30 09:53:01;;;;;;;3.90;2.33;;;16.30;99.90;;;;;;5076316;28;20454;-70
2023/03/30 09:55:30;;;;;;;7.27;2.57;;;16.40;99.90;;;;;;5076483;28;20466;-70
2023/03/30 09:58:16;;;;;;;5.90;2.67;;;16.40;99.90;;;;;;5076319;28;20516;-70
2023/03/30 10:00:43;;;;;;;4.00;2.20;;;16.50;99.90;;;;;;5075473;28;20446;-71
2023/03/30 10:03:20;;;;;;;6.87;2.03;;;16.50;99.90;;;;;;5075721;28;20492;-69
2023/03/30 10:06:01;;;;;;;6.13;2.60;;;16.60;99.90;;;;;;5075871;28;20454;-69
2023/03/30 10:08:29;;;;;;;6.17;2.37;;;16.60;99.90;;;;;;5075964;28;20438;-71
2023/03/30 10:10:57;;;;;;;3.70;2.10;;;16.70;99.90;;;;;;5076277;28;20454;-69
2023/03/30 10:13:31;;;;;;;5.87;2.73;;;16.80;99.90;;;;;;5075976;28;20464;-70
2023/03/30 10:16:04;;;;;;;5.53;2.60;;;16.80;99.90;;;;;;5076678;28;20935;-70
2023/03/30 10:18:40;;;;;;;4.20;2.20;;;16.70;99.90;;;;;;5075705;28;20442;-70
2023/03/30 10:21:16;;;;;;;8.40;2.50;;;16.70;99.90;;;;;;5075919;28;20446;-71
2023/03/30 10:23:46;;;;;;;5.90;2.87;;;16.60;99.90;;;;;;5075791;28;20536;-69
2023/03/30 10:26:17;;;;;;;7.97;3.50;;;16.50;99.90;;;;;;5075810;28;20454;-72
2023/03/30 10:28:53;;;;;;;6.77;3.03;;;16.40;99.90;;;;;;5075681;28;20453;-69
2023/03/30 10:31:21;;;;;;;4.50;2.97;;;16.30;99.90;;;;;;5075777;28;20445;-70
2023/03/30 10:33:49;;;;;;;4.30;3.03;;;16.30;99.90;;;;;;5075713;28;20940;-70
2023/03/30 10:36:19;;;;;;;7.60;2.90;;;16.30;99.90;;;;;;5075496;28;20531;-69
2023/03/30 10:38:46;;;;;;;4.83;2.30;;;16.20;99.90;;;;;;5075768;28;20778;-71
2023/03/30 10:41:19;;;;;;;7.33;3.17;;;16.20;99.90;;;;;;5075142;28;20458;-70
2023/03/30 10:43:47;;;;;;;6.00;2.30;;;16.20;99.90;;;;;;5075729;28;20434;-71
2023/03/30 10:46:18;;;;;;;8.60;2.87;;;16.30;99.90;;;;;;5075872;28;20777;-70
2023/03/30 10:49:07;;;;;;;13.13;2.80;;;16.40;99.90;;;;;;5075574;28;20443;-70
2023/03/30 10:51:46;;;;;;;7.47;2.70;;;16.50;99.90;;;;;;5075126;28;20435;-69
2023/03/30 10:54:19;;;;;;;6.20;2.33;;;16.60;99.90;;;;;;5074821;28;20923;-70
2023/03/30 10:56:50;;;;;;;6.80;2.70;;;16.80;99.90;;;;;;5075056;28;20548;-70
2023/03/30 10:59:37;;;;;;;6.80;2.43;;;17.00;99.90;;;;;;5074553;28;20889;-69
2023/03/30 11:02:21;;;;;;;6.20;3.10;;;17.10;99.90;;;;;;5074625;28;20492;-70
2023/03/30 11:04:53;;;;;;;6.77;2.67;;;17.20;99.90;;;;;;5075100;28;20545;-69
2023/03/30 11:07:28;;;;;;;8.90;2.60;;;17.30;99.90;;;;;;5074622;28;20474;-70
2023/03/30 11:10:00;;;;;;;4.70;2.20;;;17.30;99.90;;;;;;5074819;28;20943;-69
2023/03/30 11:12:33;;;;;;;4.23;2.40;;;17.30;99.90;;;;;;5074855;28;20888;-70
2023/03/30 11:15:02;;;;;;;5.27;2.73;;;17.20;99.90;;;;;;5074258;28;20449;-69
2023/03/30 11:17:34;;;;;;;3.97;2.30;;;17.20;99.90;;;;;;5074343;28;20482;-70
2023/03/30 11:20:10;;;;;;;7.73;3.03;;;17.30;99.90;;;;;;5074799;28;20531;-70
2023/03/30 11:22:41;;;;;;;4.80;2.40;;;17.30;99.90;;;;;;5074592;28;20442;-69
2023/03/30 11:25:19;;;;;;;4.90;2.60;;;17.40;99.90;;;;;;5074382;28;20438;-68
2023/03/30 11:27:54;;;;;;;9.20;3.00;;;17.40;99.90;;;;;;5074097;28;20895;-70
2023/03/30 11:30:27;;;;;;;6.97;2.70;;;17.40;99.90;;;;;;5074389;28;20453;-69
2023/03/30 11:32:59;;;;;;;4.87;2.57;;;17.30;99.90;;;;;;5074515;28;20596;-71
2023/03/30 11:35:35;;;;;;;10.30;3.07;;;17.10;99.90;;;;;;5074486;28;20446;-71
2023/03/30 11:38:09;;;;;;;9.27;2.90;;;17.00;99.90;;;;;;5075414;28;20558;-71
2023/03/30 11:40:42;;;;;;;8.27;3.03;;;16.80;99.90;;;;;;5075872;28;20835;-70
2023/03/30 11:43:11;;;;;;;4.80;2.80;;;16.80;99.90;;;;;;5075014;28;20883;-71
2023/03/30 11:45:56;;;;;;;6.20;3.07;;;17.00;99.90;;;;;;5074205;28;20454;-70
2023/03/30 11:48:52;;;;;;;8.03;3.47;;;17.10;99.90;;;;;;5074286;28;20548;-71
2023/03/30 11:51:31;;;;;;;4.30;2.40;;;17.20;99.90;;;;;;5074017;28;20454;-69
2023/03/30 11:54:07;;;;;;;3.90;2.83;;;17.10;99.90;;;;;;5074204;28;20452;-70
2023/03/30 11:56:40;;;;;;;8.77;2.73;;;17.40;99.90;;;;;;5074259;28;20439;-70
2023/03/30 11:59:17;;;;;;;7.97;3.47;;;17.90;99.90;;;;;;5074370;28;20845;-69
2023/03/30 12:02:06;;;;;;;5.27;3.63;;;18.50;99.90;;;;;;5074058;28;20786;-69
2023/03/30 12:04:39;;;;;;;9.50;2.90;;;19.00;99.90;;;;;;5074286;28;20832;-70
2023/03/30 12:07:16;;;;;;;5.50;3.57;;;19.50;99.90;;;;;;5074074;28;20879;-70
2023/03/30 12:09:51;;;;;;;4.80;2.73;;;20.00;99.90;;;;;;5074292;28;20481;-70
2023/03/30 12:12:27;;;;;;;4.43;2.93;;;20.80;99.90;;;;;;5074252;28;20434;-70
2023/03/30 12:15:09;;;;;;;7.40;3.30;;;21.50;99.90;;;;;;5074657;28;20846;-70
2023/03/30 12:17:43;;;;;;;7.33;2.77;;;22.20;99.90;;;;;;5074585;28;20506;-71
2023/03/30 12:20:24;;;;;;;9.10;3.17;;;22.70;99.90;;;;;;5074737;28;20509;-70
2023/03/30 12:22:58;;;;;;;6.93;2.97;;;22.80;99.90;;;;;;5076195;28;20453;-70
2023/03/30 12:25:32;;;;;;;5.47;2.90;;;23.10;99.90;;;;;;5078212;28;20537;-70
2023/03/30 12:28:04;;;;;;;4.90;2.97;;;22.70;99.90;;;;;;5078470;28;20439;-70
2023/03/30 12:30:42;;;;;;;7.20;3.07;;;22.90;99.90;;;;;;5078392;28;20774;-70
2023/03/30 12:33:12;;;;;;;5.87;2.90;;;23.20;99.60;;;;;;5078539;28;20529;-71
2023/03/30 12:35:57;;;;;;;7.60;3.03;;;23.40;98.00;;;;;;5078460;28;20464;-70
2023/03/30 12:38:26;;;;;;;5.40;2.60;;;23.20;95.40;;;;;;5076909;28;20573;-70
2023/03/30 12:41:17;;;;;;;15.03;3.10;;;22.60;97.50;;;;;;5078362;28;20464;-70
2023/03/30 12:44:09;;;;;;;6.43;2.40;;;21.80;99.90;;;;;;5078415;28;20442;-70
2023/03/30 12:46:43;;;;;;;7.87;2.60;;;21.50;99.90;;;;;;5078065;28;20442;-70
2023/03/30 12:49:19;;;;;;;7.07;2.93;;;21.10;99.90;;;;;;5077899;28;20434;-70
2023/03/30 12:52:00;;;;;;;5.80;2.90;;;20.70;99.90;;;;;;5077893;28;20533;-69
2023/03/30 12:54:46;;;;;;;5.37;2.70;;;21.00;99.90;;;;;;5078657;28;20867;-71
2023/03/30 12:57:30;;;;;;;5.17;2.50;;;21.70;99.90;;;;;;5077936;28;20494;-69
2023/03/30 13:00:35;;;;;;;5.13;2.27;;;22.20;99.90;;;;;;5077582;28;20899;-70
2023/03/30 13:03:39;;;;;;;4.90;2.80;;;21.50;99.90;;;;;;5016464;28;20604;-71
2023/03/30 13:06:14;;;;;;;9.60;3.20;;;20.50;99.90;;;;;;5046472;28;20458;-70
2023/03/30 13:08:42;;;;;;;4.00;2.57;;;20.30;99.90;;;;;;5077738;28;20517;-71